Pagrindinis puslapis
METAR-TAF:

METAR-TAF

Oro uostai :

Ciuricho oro uostas

Ciurichas, Šveicarija

platuma: 47-29N, ilguma: 008-32E, Aukštis: 436 m

Dabartinis oras

Ataskaita buvo paskelbta 14 minutes, ne 21:20 UTC
Vėjas 2 kt iš Vakarų/Šiaurės Vakarų
Temperatūra 10°C
Drėgmė 62%
Slėgis 1023 hPa
Matomumas 10 km arba daugiau
nėra debesų žemiau 1500 m ir nėra kamuolinių lietaus debesų

METAR: LSZH 092120Z 30002KT CAVOK 10/03 Q1023 NOSIG

Laikas: 23:34 (21:34 UTC)

Prognozė

Ataskaita buvo paskelbta 1 valandą ir 9 minutes, ne 20:25 UTC
Prognozė galioja nuo 09 metu 21 UTC su 11 metu 03 UTC
Vėjas 3 kt nuo kintamojo kryptimis
Matomumas 10 km arba daugiau
nėra debesų žemiau 1500 m ir nėra kamuolinių lietaus debesų
Laikinai
nuo 10 metu 10 UTC su 10 metu 19 UTC
Vėjas 6 kt iš Šiaurės Rytų

TAF: LSZH 092025Z 0921/1103 VRB03KT CAVOK TX23/1015Z TN04/1005Z TEMPO 1010/1019 05006KT

Orai ataskaitas ir orų prognozės (METAR, TAF).

turimą stotys yra geltonos ir raudonos taškus žemėlapyje.

Perkelti pele per norėdami pamatyti stoties vardą.

Tada spustelėkite, norėdami matyti oro stebėjimo ir prognozės.

Norėdami pakeisti žemėlapį: spustelėkite ant žalios mygtukų su juodo kryžiaus žemyn,; žalią mygtuką su brūkšneliu, jei norite nutolinti; arba žalių rodyklių gretimoms žemėlapius.


METAR-TAF: